createdAt,value
2018-04-12T00:01:36.518Z,12.42
2018-04-12T00:04:04.838Z,12.33
2018-04-12T00:06:33.170Z,12.22
2018-04-12T00:09:01.520Z,12.22
2018-04-12T00:11:30.612Z,12.24
2018-04-12T00:13:58.994Z,12.10
2018-04-12T00:16:28.093Z,12.17
2018-04-12T00:18:57.221Z,12.19
2018-04-12T00:21:26.483Z,12.18
2018-04-12T00:23:55.572Z,12.08
2018-04-12T00:26:23.939Z,12.04
2018-04-12T00:28:52.268Z,12.15
2018-04-12T00:31:20.656Z,12.12
2018-04-12T00:33:48.987Z,12.14
2018-04-12T00:36:18.083Z,12.12
2018-04-12T00:38:47.241Z,12.01
2018-04-12T00:41:16.336Z,11.96
2018-04-12T00:43:44.686Z,12.07
2018-04-12T00:46:13.021Z,12.14
2018-04-12T00:48:41.367Z,12.06
2018-04-12T00:51:09.708Z,12.00
2018-04-12T00:53:55.732Z,11.96
2018-04-12T00:56:24.035Z,11.97
2018-04-12T00:58:52.448Z,11.92
2018-04-12T01:01:20.833Z,11.93
2018-04-12T01:03:49.173Z,11.82
2018-04-12T01:06:17.524Z,11.85
2018-04-12T01:08:45.888Z,11.87
2018-04-12T01:11:15.254Z,11.86
2018-04-12T01:13:44.362Z,11.69
2018-04-12T01:16:13.114Z,11.70
2018-04-12T01:18:41.492Z,11.70
2018-04-12T01:21:09.871Z,11.67
2018-04-12T01:23:38.238Z,11.60
2018-04-12T01:26:06.596Z,11.66
2018-04-12T01:28:34.936Z,11.63
2018-04-12T01:31:03.307Z,11.60
2018-04-12T01:33:32.043Z,11.68
2018-04-12T01:36:01.174Z,11.69
2018-04-12T01:38:29.554Z,11.52
2018-04-12T01:40:58.675Z,11.52
2018-04-12T01:43:27.013Z,11.51
2018-04-12T01:45:55.331Z,11.47
2018-04-12T01:48:23.699Z,11.42
2018-04-12T01:50:52.785Z,11.41
2018-04-12T01:53:21.893Z,11.36
2018-04-12T01:55:50.253Z,11.39
2018-04-12T01:58:19.345Z,11.37
2018-04-12T02:00:48.468Z,11.33
2018-04-12T02:03:17.219Z,11.30
2018-04-12T02:05:47.084Z,11.31
2018-04-12T02:08:15.445Z,11.23
2018-04-12T02:10:43.769Z,11.26
2018-04-12T02:13:12.133Z,11.12
2018-04-12T02:15:40.461Z,11.13
2018-04-12T02:18:09.588Z,11.18
2018-04-12T02:20:37.904Z,10.95
2018-04-12T02:23:07.030Z,11.02
2018-04-12T02:25:36.104Z,11.05
2018-04-12T02:28:04.485Z,11.00
2018-04-12T02:30:32.839Z,10.96
2018-04-12T02:33:01.168Z,11.00
2018-04-12T02:35:30.651Z,11.00
2018-04-12T02:37:59.720Z,10.95
2018-04-12T02:40:28.026Z,10.91
2018-04-12T02:42:57.161Z,10.90
2018-04-12T02:45:25.508Z,10.92
2018-04-12T02:47:53.849Z,10.90
2018-04-12T02:50:22.181Z,10.93
2018-04-12T02:52:51.699Z,10.79
2018-04-12T02:55:19.998Z,10.77
2018-04-12T02:57:49.128Z,10.81
2018-04-12T03:00:18.216Z,10.77
2018-04-12T03:02:47.335Z,10.76
2018-04-12T03:05:16.090Z,10.70
2018-04-12T03:07:44.821Z,10.58
2018-04-12T03:10:13.162Z,10.69
2018-04-12T03:12:41.533Z,10.73
2018-04-12T03:15:09.853Z,10.64
2018-04-12T03:17:38.169Z,10.57
2018-04-12T03:20:06.549Z,10.47
2018-04-12T03:22:34.875Z,10.40
2018-04-12T03:25:03.218Z,10.54
2018-04-12T03:27:31.539Z,10.51
2018-04-12T03:29:59.894Z,10.56
2018-04-12T03:32:29.020Z,10.55
2018-04-12T03:34:57.319Z,10.52
2018-04-12T03:37:26.069Z,10.41
2018-04-12T03:39:54.449Z,10.29
2018-04-12T03:42:22.804Z,10.16
2018-04-12T03:44:51.913Z,10.24
2018-04-12T03:47:21.004Z,10.40
2018-04-12T03:49:50.119Z,10.36
2018-04-12T03:52:18.425Z,10.35
2018-04-12T03:54:46.788Z,10.35
2018-04-12T03:57:15.441Z,10.34
2018-04-12T03:59:44.563Z,10.38
2018-04-12T04:02:12.880Z,10.32
2018-04-12T04:04:41.431Z,10.36
2018-04-12T04:07:09.790Z,10.29
2018-04-12T04:09:38.104Z,10.30
2018-04-12T04:12:06.442Z,10.28
2018-04-12T04:14:48.318Z,10.35
2018-04-12T04:20:44.582Z,10.34
2018-04-12T04:23:13.704Z,10.33
2018-04-12T04:25:42.006Z,10.31
2018-04-12T04:28:10.373Z,10.26
2018-04-12T04:30:38.738Z,10.32
2018-04-12T04:33:07.799Z,10.42
2018-04-12T04:35:37.565Z,10.42
2018-04-12T04:38:05.912Z,10.43
2018-04-12T04:40:34.242Z,10.47
2018-04-12T04:43:02.604Z,10.28
2018-04-12T04:45:31.355Z,10.52
2018-04-12T04:48:00.855Z,10.59
2018-04-12T04:50:30.348Z,10.64
2018-04-12T04:52:58.707Z,10.65
2018-04-12T04:55:27.838Z,10.70
2018-04-12T04:57:56.191Z,10.73
2018-04-12T05:00:25.332Z,10.80
2018-04-12T05:02:53.652Z,10.86
2018-04-12T05:05:22.736Z,10.93
2018-04-12T05:07:51.884Z,11.01
2018-04-12T05:10:20.213Z,11.07
2018-04-12T05:12:49.336Z,11.13
2018-04-12T05:15:17.660Z,11.19
2018-04-12T05:17:46.003Z,11.25
2018-04-12T05:20:14.380Z,11.25
2018-04-12T05:22:42.756Z,11.38
2018-04-12T05:25:11.134Z,11.44
2018-04-12T05:27:39.491Z,11.50
2018-04-12T05:30:08.583Z,11.51
2018-04-12T05:32:37.704Z,11.58
2018-04-12T05:35:06.062Z,11.73
2018-04-12T05:37:34.408Z,11.75
2018-04-12T05:40:02.737Z,11.84
2018-04-12T05:42:32.110Z,11.89
2018-04-12T05:45:01.797Z,11.90
2018-04-12T05:47:30.942Z,11.94
2018-04-12T05:49:59.258Z,12.04
2018-04-12T05:52:27.605Z,12.03
2018-04-12T05:54:55.959Z,12.03
2018-04-12T05:57:24.310Z,12.14
2018-04-12T05:59:53.437Z,12.33
2018-04-12T06:02:21.803Z,12.52
2018-04-12T06:04:50.874Z,12.77
2018-04-12T06:07:19.273Z,12.83
2018-04-12T06:09:47.571Z,13.02
2018-04-12T06:12:15.928Z,13.17
2018-04-12T06:14:45.047Z,13.36
2018-04-12T06:17:13.396Z,13.33
2018-04-12T06:19:42.516Z,13.65
2018-04-12T06:22:10.884Z,14.08
2018-04-12T06:24:39.227Z,14.39
2018-04-12T06:27:07.554Z,14.53
2018-04-12T06:29:35.905Z,14.36
2018-04-12T06:32:05.047Z,14.26
2018-04-12T06:34:33.369Z,14.41
2018-04-12T06:37:02.735Z,14.61
2018-04-12T06:39:31.111Z,14.72
2018-04-12T06:41:59.439Z,14.86
2018-04-12T06:44:28.572Z,15.06
2018-04-12T06:46:57.357Z,15.10
2018-04-12T06:49:25.682Z,15.31
2018-04-12T06:51:54.826Z,15.25
2018-04-12T06:54:23.150Z,15.06
2018-04-12T06:56:51.574Z,15.42
2018-04-12T06:59:20.016Z,15.31
2018-04-12T07:01:49.100Z,15.48
2018-04-12T07:04:17.436Z,15.52
2018-04-12T07:06:45.743Z,16.07
2018-04-12T07:09:14.214Z,16.07
2018-04-12T07:11:42.559Z,16.22
2018-04-12T07:14:10.920Z,16.45
2018-04-12T07:16:39.236Z,16.52
2018-04-12T07:19:07.596Z,16.58
2018-04-12T07:21:35.907Z,16.44
2018-04-12T07:24:04.227Z,16.71
2018-04-12T07:26:33.728Z,17.12
2018-04-12T07:29:02.821Z,17.26
2018-04-12T07:31:31.953Z,17.23
2018-04-12T07:34:00.293Z,17.15
2018-04-12T07:36:29.416Z,17.28
2018-04-12T07:38:57.743Z,17.69
2018-04-12T07:41:27.137Z,17.69
2018-04-12T07:43:55.507Z,18.19
2018-04-12T07:46:23.987Z,18.18
2018-04-12T07:48:52.318Z,18.25
2018-04-12T07:51:21.177Z,17.89
2018-04-12T07:53:50.296Z,18.22
2018-04-12T07:56:19.064Z,18.59
2018-04-12T07:58:49.928Z,18.92
2018-04-12T08:01:18.259Z,19.09
2018-04-12T08:03:46.565Z,19.47
2018-04-12T08:06:15.704Z,19.26
2018-04-12T08:08:44.031Z,19.83
2018-04-12T08:11:13.245Z,19.74
2018-04-12T08:13:41.995Z,19.84
2018-04-12T08:16:10.333Z,20.08
2018-04-12T08:18:38.676Z,20.13
2018-04-12T08:21:07.025Z,20.25
2018-04-12T08:23:35.414Z,20.37
2018-04-12T08:26:03.741Z,20.56
2018-04-12T08:28:32.101Z,20.90
2018-04-12T08:31:00.428Z,20.93
2018-04-12T08:33:28.775Z,20.58
2018-04-12T08:35:57.108Z,21.12
2018-04-12T08:38:26.249Z,21.23
2018-04-12T08:40:54.597Z,21.29
2018-04-12T08:43:23.725Z,21.11
2018-04-12T08:45:52.082Z,21.33
2018-04-12T08:48:20.391Z,21.66
2018-04-12T08:50:48.761Z,21.65
2018-04-12T08:53:17.130Z,21.19
2018-04-12T08:55:45.476Z,21.10
2018-04-12T08:58:13.816Z,21.68
2018-04-12T09:00:42.150Z,21.76
2018-04-12T09:03:10.530Z,21.98
2018-04-12T09:05:38.899Z,21.97
2018-04-12T09:08:07.277Z,21.74
2018-04-12T09:10:35.594Z,21.96
2018-04-12T09:13:03.958Z,21.81
2018-04-12T09:15:32.285Z,22.02
2018-04-12T09:18:01.426Z,22.21
2018-04-12T09:20:30.544Z,22.24
2018-04-12T09:22:58.890Z,22.65
2018-04-12T09:25:28.004Z,22.80
2018-04-12T09:27:56.329Z,22.91
2018-04-12T09:30:25.409Z,22.69
2018-04-12T09:32:53.756Z,22.93
2018-04-12T09:35:22.095Z,23.28
2018-04-12T09:37:50.426Z,22.83
2018-04-12T09:40:18.733Z,23.05
2018-04-12T09:42:47.854Z,23.07
2018-04-12T09:45:16.200Z,22.73
2018-04-12T09:47:45.318Z,23.48
2018-04-12T09:50:13.673Z,23.52
2018-04-12T09:52:41.974Z,23.96
2018-04-12T09:55:10.314Z,23.89
2018-04-12T09:57:38.658Z,24.06
2018-04-12T10:00:07.002Z,24.10
2018-04-12T10:02:40.905Z,23.63
2018-04-12T10:05:10.010Z,23.64
2018-04-12T10:07:43.962Z,23.74
2018-04-12T10:10:12.301Z,23.39
2018-04-12T10:12:40.678Z,23.62
2018-04-12T10:15:09.046Z,23.82
2018-04-12T10:17:37.433Z,24.32
2018-04-12T10:20:05.752Z,24.06
2018-04-12T10:22:34.878Z,23.86
2018-04-12T10:25:03.992Z,24.18
2018-04-12T10:27:33.085Z,24.75
2018-04-12T10:30:01.464Z,24.77
2018-04-12T10:32:29.809Z,24.54
2018-04-12T10:34:58.118Z,23.95
2018-04-12T10:37:27.256Z,23.87
2018-04-12T10:39:55.604Z,24.27
2018-04-12T10:42:23.916Z,24.53
2018-04-12T10:44:52.287Z,24.57
2018-04-12T10:47:20.599Z,24.60
2018-04-12T10:49:48.969Z,24.27
2018-04-12T10:52:17.370Z,24.80
2018-04-12T10:54:45.766Z,24.97
2018-04-12T10:57:14.121Z,25.26
2018-04-12T10:59:43.239Z,24.72
2018-04-12T11:02:11.549Z,24.47
2018-04-12T11:04:39.916Z,24.63
2018-04-12T11:07:08.229Z,24.67
2018-04-12T11:09:36.576Z,24.42
2018-04-12T11:12:04.957Z,24.89
2018-04-12T11:14:33.287Z,25.13
2018-04-12T11:17:02.413Z,24.33
2018-04-12T11:19:30.776Z,24.78
2018-04-12T11:21:59.623Z,24.19
2018-04-12T11:24:27.942Z,24.68
2018-04-12T11:26:56.315Z,24.56
2018-04-12T11:29:25.412Z,24.37
2018-04-12T11:31:53.773Z,24.50
2018-04-12T11:34:22.892Z,24.33
2018-04-12T11:36:51.234Z,24.08
2018-04-12T11:39:19.594Z,24.17
2018-04-12T11:41:47.960Z,24.05
2018-04-12T11:44:16.302Z,24.09
2018-04-12T11:46:44.728Z,24.24
2018-04-12T11:49:13.022Z,24.43
2018-04-12T11:51:41.374Z,24.47
2018-04-12T11:54:09.717Z,24.22
2018-04-12T11:56:38.068Z,23.97
2018-04-12T11:59:07.143Z,23.86
2018-04-12T12:01:35.517Z,23.83
2018-04-12T12:04:03.885Z,23.76
2018-04-12T12:06:32.260Z,23.69
2018-04-12T12:09:00.580Z,23.70
2018-04-12T12:11:29.692Z,23.74
2018-04-12T12:13:58.014Z,23.75
2018-04-12T12:16:26.391Z,23.70
2018-04-12T12:18:54.718Z,23.69
2018-04-12T12:21:23.074Z,23.60
2018-04-12T12:23:52.198Z,23.75
2018-04-12T12:26:21.298Z,23.84
2018-04-12T12:28:49.629Z,23.81
2018-04-12T12:31:17.987Z,23.80
2018-04-12T12:33:46.292Z,23.61
2018-04-12T12:36:14.638Z,23.72
2018-04-12T12:38:42.972Z,23.73
2018-04-12T12:41:11.315Z,23.75
2018-04-12T12:43:39.636Z,23.89
2018-04-12T12:46:08.001Z,23.85
2018-04-12T12:48:36.325Z,23.96
2018-04-12T12:51:04.703Z,23.99
2018-04-12T12:53:33.018Z,23.99
2018-04-12T12:56:02.206Z,23.91
2018-04-12T12:58:30.508Z,23.89
2018-04-12T13:00:58.831Z,24.11
2018-04-12T13:03:27.213Z,24.52
2018-04-12T13:05:55.557Z,24.92
2018-04-12T13:08:23.925Z,24.75
2018-04-12T13:10:52.239Z,25.03
2018-04-12T13:13:20.621Z,25.00
2018-04-12T13:15:48.941Z,25.04
2018-04-12T13:18:18.070Z,25.07
2018-04-12T13:20:46.412Z,24.97
2018-04-12T13:23:15.496Z,24.80
2018-04-12T13:25:43.965Z,24.60
2018-04-12T13:28:12.286Z,24.54
2018-04-12T13:30:40.604Z,24.45
2018-04-12T13:33:09.038Z,24.58
2018-04-12T13:35:37.324Z,24.41
2018-04-12T13:38:05.683Z,24.49
2018-04-12T13:40:34.829Z,24.73
2018-04-12T13:43:03.291Z,24.89
2018-04-12T13:45:31.754Z,24.84
2018-04-12T13:48:00.282Z,24.71
2018-04-12T13:50:28.784Z,24.75
2018-04-12T13:52:57.184Z,24.88
2018-04-12T13:55:25.555Z,25.05
2018-04-12T13:57:54.706Z,24.97
2018-04-12T14:00:23.204Z,25.09
2018-04-12T14:02:51.546Z,25.14
2018-04-12T14:05:19.924Z,25.33
2018-04-12T14:07:48.267Z,25.10
2018-04-12T14:10:17.504Z,25.40
2018-04-12T14:12:45.814Z,25.67
2018-04-12T14:15:14.369Z,25.51
2018-04-12T14:17:42.708Z,25.83
2018-04-12T14:20:11.881Z,25.58
2018-04-12T14:22:41.005Z,24.76
2018-04-12T14:25:09.710Z,24.62
2018-04-12T14:27:38.080Z,24.93
2018-04-12T14:30:06.389Z,24.78
2018-04-12T14:32:35.657Z,24.72
2018-04-12T14:35:04.011Z,24.74
2018-04-12T14:37:33.100Z,24.96
2018-04-12T14:40:02.588Z,25.09
2018-04-12T14:42:30.955Z,25.35
2018-04-12T14:44:59.274Z,25.48
2018-04-12T14:47:27.682Z,25.55
2018-04-12T14:49:55.998Z,25.29
2018-04-12T14:52:24.354Z,25.37
2018-04-12T14:54:52.739Z,25.09
2018-04-12T14:57:22.106Z,25.20
2018-04-12T14:59:50.409Z,25.23
2018-04-12T15:02:18.785Z,25.12
2018-04-12T15:04:47.081Z,24.73
2018-04-12T15:07:15.413Z,24.44
2018-04-12T15:09:43.784Z,24.20
2018-04-12T15:12:12.118Z,23.91
2018-04-12T15:14:41.277Z,23.73
2018-04-12T15:17:09.604Z,23.94
2018-04-12T15:19:38.684Z,24.04
2018-04-12T15:22:07.084Z,24.35
2018-04-12T15:24:36.174Z,24.71
2018-04-12T15:27:05.321Z,24.98
2018-04-12T15:29:34.476Z,24.88
2018-04-12T15:32:03.011Z,24.94
2018-04-12T15:34:31.397Z,24.51
2018-04-12T15:36:59.745Z,24.35
2018-04-12T15:39:28.122Z,24.39
2018-04-12T15:41:56.647Z,24.33
2018-04-12T15:44:25.431Z,24.36
2018-04-12T15:46:53.809Z,24.39
2018-04-12T15:49:22.215Z,24.38
2018-04-12T15:51:51.009Z,24.32
2018-04-12T15:54:19.409Z,24.28
2018-04-12T15:56:48.931Z,24.10
2018-04-12T15:59:18.126Z,24.01
2018-04-12T16:01:46.496Z,24.01
2018-04-12T16:04:14.829Z,24.04
2018-04-12T16:06:43.356Z,24.14
2018-04-12T16:09:11.715Z,24.11
2018-04-12T16:11:40.049Z,23.95
2018-04-12T16:14:09.220Z,24.02
2018-04-12T16:16:37.567Z,23.93
2018-04-12T16:19:05.917Z,23.79
2018-04-12T16:21:35.060Z,23.70
2018-04-12T16:24:03.877Z,23.55
2018-04-12T16:26:32.653Z,23.39
2018-04-12T16:29:01.076Z,23.34
2018-04-12T16:31:30.948Z,23.33
2018-04-12T16:33:59.754Z,23.39
2018-04-12T16:36:28.169Z,23.50
2018-04-12T16:38:56.585Z,23.51
2018-04-12T16:41:25.077Z,23.56
2018-04-12T16:43:53.504Z,23.57
2018-04-12T16:46:21.949Z,23.52
2018-04-12T16:48:50.304Z,23.40
2018-04-12T16:51:19.613Z,23.35
2018-04-12T16:53:48.744Z,23.21
2018-04-12T16:56:17.925Z,23.06
2018-04-12T16:58:46.695Z,22.95
2018-04-12T17:01:15.048Z,22.81
2018-04-12T17:03:43.505Z,22.85
2018-04-12T17:06:12.257Z,22.69
2018-04-12T17:08:41.600Z,22.63
2018-04-12T17:11:10.125Z,22.53
2018-04-12T17:13:38.485Z,22.42
2018-04-12T17:16:07.144Z,22.41
2018-04-12T17:18:37.549Z,22.28
2018-04-12T17:21:05.933Z,22.14
2018-04-12T17:23:35.036Z,22.00
2018-04-12T17:26:03.381Z,21.78
2018-04-12T17:28:31.746Z,21.82
2018-04-12T17:31:00.577Z,21.65
2018-04-12T17:33:28.951Z,21.66
2018-04-12T17:35:58.115Z,21.72
2018-04-12T17:38:26.500Z,21.73
2018-04-12T17:40:54.870Z,21.64
2018-04-12T17:43:23.948Z,21.64
2018-04-12T17:45:52.326Z,21.72
2018-04-12T17:48:20.662Z,21.67
2018-04-12T17:50:49.043Z,21.37
2018-04-12T17:53:17.348Z,21.24
2018-04-12T17:55:45.728Z,21.16
2018-04-12T17:58:14.029Z,21.18
2018-04-12T18:00:42.372Z,21.04
2018-04-12T18:03:10.765Z,21.13
2018-04-12T18:05:39.078Z,21.14
2018-04-12T18:08:07.497Z,21.20
2018-04-12T18:10:35.831Z,21.05
2018-04-12T18:13:04.193Z,20.88
2018-04-12T18:15:33.342Z,20.84
2018-04-12T18:18:01.675Z,20.75
2018-04-12T18:20:30.151Z,20.56
2018-04-12T18:22:58.611Z,20.73
2018-04-12T18:25:26.946Z,20.64
2018-04-12T18:27:55.362Z,20.57
2018-04-12T18:30:24.415Z,20.58
2018-04-12T18:32:53.595Z,20.60
2018-04-12T18:35:21.956Z,20.58
2018-04-12T18:37:50.313Z,20.51
2018-04-12T18:40:18.669Z,20.28
2018-04-12T18:42:47.046Z,20.30
2018-04-12T18:45:15.393Z,20.10
2018-04-12T18:47:44.615Z,20.21
2018-04-12T18:50:12.978Z,20.18
2018-04-12T18:52:42.231Z,20.13
2018-04-12T18:55:10.556Z,19.94
2018-04-12T18:57:39.081Z,19.98
2018-04-12T19:00:08.923Z,19.97
2018-04-12T19:02:37.303Z,19.98
2018-04-12T19:05:05.732Z,20.05
2018-04-12T19:07:34.830Z,19.95
2018-04-12T19:10:04.121Z,19.91
2018-04-12T19:12:33.943Z,19.73
2018-04-12T19:15:02.297Z,19.77
2018-04-12T19:17:30.653Z,19.72
2018-04-12T19:20:01.051Z,19.68
2018-04-12T19:22:29.370Z,19.74
2018-04-12T19:24:58.515Z,19.61
2018-04-12T19:27:26.953Z,19.26
2018-04-12T19:29:55.328Z,19.54
2018-04-12T19:32:23.664Z,19.52
2018-04-12T19:34:52.841Z,19.50
2018-04-12T19:37:21.229Z,19.38
2018-04-12T19:39:49.590Z,19.33
2018-04-12T19:42:17.960Z,19.28
2018-04-12T19:44:46.324Z,19.36
2018-04-12T19:47:15.693Z,19.33
2018-04-12T19:49:44.083Z,19.15
2018-04-12T19:52:13.181Z,19.05
2018-04-12T19:54:41.544Z,19.26
2018-04-12T19:57:09.897Z,19.24
2018-04-12T19:59:38.324Z,19.13
2018-04-12T20:02:06.644Z,18.93
2018-04-12T20:04:35.057Z,18.88
2018-04-12T20:07:03.426Z,18.93
2018-04-12T20:09:31.768Z,19.08
2018-04-12T20:12:00.146Z,19.01
2018-04-12T20:14:28.520Z,18.87
2018-04-12T20:16:56.837Z,18.74
2018-04-12T20:19:25.583Z,18.80
2018-04-12T20:21:53.909Z,18.77
2018-04-12T20:24:23.599Z,18.65
2018-04-12T20:26:51.972Z,18.47
2018-04-12T20:29:20.311Z,18.67
2018-04-12T20:31:48.641Z,18.59
2018-04-12T20:34:17.728Z,18.74
2018-04-12T20:36:46.051Z,18.41
2018-04-12T20:39:14.407Z,18.56
2018-04-12T20:41:43.551Z,18.71
2018-04-12T20:44:12.262Z,18.84
2018-04-12T20:46:40.613Z,18.62
2018-04-12T20:49:10.075Z,18.55
2018-04-12T20:51:39.250Z,18.54
2018-04-12T20:54:07.579Z,18.32
2018-04-12T20:56:36.735Z,18.44
2018-04-12T20:59:05.111Z,18.40
2018-04-12T21:01:33.503Z,18.20
2018-04-12T21:04:01.866Z,17.93
2018-04-12T21:06:30.207Z,17.82
2018-04-12T21:08:58.568Z,17.86
2018-04-12T21:11:26.931Z,18.00
2018-04-12T21:13:55.280Z,18.09
2018-04-12T21:16:23.638Z,18.03
2018-04-12T21:18:52.190Z,18.20
2018-04-12T21:21:20.531Z,18.13
2018-04-12T21:23:49.695Z,18.07
2018-04-12T21:26:18.054Z,18.01
2018-04-12T21:28:46.369Z,18.12
2018-04-12T21:31:14.721Z,18.10
2018-04-12T21:33:43.044Z,18.09
2018-04-12T21:36:12.171Z,18.06
2018-04-12T21:38:40.478Z,18.05
2018-04-12T21:41:08.855Z,18.00
2018-04-12T21:43:37.195Z,17.96
2018-04-12T21:46:05.551Z,17.91
2018-04-12T21:48:33.916Z,18.03
2018-04-12T21:51:03.023Z,17.96
2018-04-12T21:53:31.370Z,17.85
2018-04-12T21:55:59.696Z,17.91
2018-04-12T21:58:28.061Z,17.83
2018-04-12T22:00:56.396Z,17.70
2018-04-12T22:03:24.764Z,17.84
2018-04-12T22:05:53.104Z,17.91
2018-04-12T22:08:22.217Z,17.91
2018-04-12T22:10:50.545Z,17.86
2018-04-12T22:13:19.675Z,17.86
2018-04-12T22:15:48.046Z,17.75
2018-04-12T22:18:16.358Z,17.70
2018-04-12T22:20:44.704Z,17.78
2018-04-12T22:23:13.046Z,17.76
2018-04-12T22:25:42.174Z,17.92
2018-04-12T22:28:10.510Z,17.92
2018-04-12T22:30:38.872Z,17.81
2018-04-12T22:33:07.198Z,17.71
2018-04-12T22:35:35.513Z,17.61
2018-04-12T22:38:03.871Z,17.56
2018-04-12T22:40:32.195Z,17.63
2018-04-12T22:43:00.548Z,17.58
2018-04-12T22:45:28.875Z,17.55
2018-04-12T22:47:57.978Z,17.47
2018-04-12T22:50:26.299Z,17.42
2018-04-12T22:52:54.633Z,17.48
2018-04-12T22:55:22.971Z,17.54
2018-04-12T22:57:51.309Z,17.44
2018-04-12T23:00:19.637Z,17.38
2018-04-12T23:02:47.991Z,17.39
2018-04-12T23:05:16.316Z,17.45
2018-04-12T23:07:45.444Z,17.41
2018-04-12T23:10:13.768Z,17.52
2018-04-12T23:12:42.151Z,17.71
2018-04-12T23:15:11.261Z,17.76
2018-04-12T23:17:40.359Z,17.83
2018-04-12T23:20:08.711Z,18.03
2018-04-12T23:22:37.833Z,18.01
2018-04-12T23:25:06.173Z,17.89
2018-04-12T23:27:34.486Z,17.95
2018-04-12T23:30:03.611Z,17.92
2018-04-12T23:32:32.713Z,17.94
2018-04-12T23:35:01.037Z,17.93
2018-04-12T23:37:30.186Z,17.99
2018-04-12T23:39:58.522Z,18.03
2018-04-12T23:42:27.614Z,17.94
2018-04-12T23:44:56.741Z,17.79
2018-04-12T23:47:25.048Z,17.78
2018-04-12T23:49:53.364Z,17.73
2018-04-12T23:52:22.495Z,17.71
2018-04-12T23:54:50.854Z,17.67
2018-04-12T23:57:19.191Z,17.61
2018-04-12T23:59:47.536Z,17.52
